DD5ZT-13 Weather Reports


Display with metric or nautical units.
time (UTC)temp
F
wind
direction
speed
MPH
gust
MPH
rain 1hr
in
rain 24hr
in
rain mn
in
humidity
%
barometer
mb
20260507142557 68 0.0 0.0 0.00 0.00 0.00 42 1018.3
20260507140506 69 0.0 0.0 0.00 0.00 0.00 42 1018.3
20260507135616 69 0.0 0.0 0.00 0.00 0.00 41 1018.3
20260507135441 69 0.0 0.0 0.00 0.00 0.00 41 1018.3
20260507134416 69 0.0 0.0 0.00 0.00 0.00 41 1018.2
20260507133616 69 0.0 0.0 0.00 0.00 0.00 41 1018.3
20260507133351 69 0.0 0.0 0.00 0.00 0.00 41 1018.3
20260507132326 69 0.0 0.0 0.00 0.00 0.00 41 1018.3
20260507131537 69 0.0 0.0 0.00 0.00 0.00 41 1018.3
20260507131301 69 0.0 0.0 0.00 0.00 0.00 41 1018.3
20260507125211 69 0.0 0.0 0.00 0.00 0.00 40 1018.2
20260507124145 70 0.0 0.0 0.00 0.00 0.00 40 1018.1
20260507122116 71 0.0 0.0 0.00 0.00 0.00 38 1018.1
20260507122055 71 0.0 0.0 0.00 0.00 0.00 38 1018.1
20260507121030 73 0.0 0.0 0.00 0.00 0.00 36 1018.1
20260507120030 80 0.0 0.0 0.00 0.00 0.00 30 1018.0
20260507120005 80 0.0 0.0 0.00 0.00 0.00 30 1018.0
20260507115116 82 0.0 0.0 0.00 0.00 0.00 28 1017.9
20260507114940 82 0.0 0.0 0.00 0.00 0.00 28 1017.9
20260507114116 83 0.0 0.0 0.00 0.00 0.00 27 1017.9
20260507113914 83 0.0 0.0 0.00 0.00 0.00 27 1017.9
20260507112936 82 0.0 0.0 0.00 0.00 0.00 28 1017.9
20260507112849 82 0.0 0.0 0.00 0.00 0.00 28 1017.9
20260507111918 81 0.0 0.0 0.00 0.00 0.00 29 1017.9
20260507111824 81 0.0 0.0 0.00 0.00 0.00 29 1017.9
20260507110823 80 0.0 0.0 0.00 0.00 0.00 31 1018.0
20260507110758 80 0.0 0.0 0.00 0.00 0.00 31 1018.0
20260507105936 78 0.0 0.0 0.00 0.00 0.00 32 1017.9
20260507105733 78 0.0 0.0 0.00 0.00 0.00 32 1017.9
20260507104720 78 0.0 0.0 0.00 0.00 0.00 33 1017.9
20260507104708 78 0.0 0.0 0.00 0.00 0.00 33 1017.9
20260507103822 76 0.0 0.0 0.00 0.00 0.00 34 1017.9
20260507103642 76 0.0 0.0 0.00 0.00 0.00 34 1017.9
20260507101616 74 0.0 0.0 0.00 0.00 0.00 37 1017.7
20260507101552 74 0.0 0.0 0.00 0.00 0.00 37 1017.7
20260507100600 73 0.0 0.0 0.00 0.00 0.00 39 1017.7
20260507100527 73 0.0 0.0 0.00 0.00 0.00 39 1017.7
20260507095616 72 0.0 0.0 0.00 0.00 0.00 40 1017.7
20260507095501 72 0.0 0.0 0.00 0.00 0.00 40 1017.7
20260507093411 70 0.0 0.0 0.00 0.00 0.00 43 1017.5
20260507092345 69 0.0 0.0 0.00 0.00 0.00 44 1017.5
20260507091320 68 0.0 0.0 0.00 0.00 0.00 46 1017.5
20260507090333 68 0.0 0.0 0.00 0.00 0.00 47 1017.5
20260507090255 68 0.0 0.0 0.00 0.00 0.00 47 1017.5
20260507085229 67 0.0 0.0 0.00 0.00 0.00 49 1017.4
20260507084436 66 0.0 0.0 0.00 0.00 0.00 50 1017.4
20260507084204 66 0.0 0.0 0.00 0.00 0.00 50 1017.4
20260507083234 66 0.0 0.0 0.00 0.00 0.00 51 1017.3
20260507083139 66 0.0 0.0 0.00 0.00 0.00 51 1017.3
20260507082322 65 0.0 0.0 0.00 0.00 0.00 52 1017.3
20260507082114 65 0.0 0.0 0.00 0.00 0.00 52 1017.3
20260507081347 65 0.0 0.0 0.00 0.00 0.00 53 1017.2
20260507081048 65 0.0 0.0 0.00 0.00 0.00 53 1017.2
20260507080059 64 0.0 0.0 0.00 0.00 0.00 54 1017.3
20260507080023 64 0.0 0.0 0.00 0.00 0.00 54 1017.3
20260507075321 64 0.0 0.0 0.00 0.00 0.00 55 1017.0
20260507074958 64 0.0 0.0 0.00 0.00 0.00 55 1017.0
20260507074347 63 0.0 0.0 0.00 0.00 0.00 56 1017.0
20260507073932 63 0.0 0.0 0.00 0.00 0.00 56 1017.0
20260507072932 63 0.0 0.0 0.00 0.00 0.00 57 1017.0
20260507072907 63 0.0 0.0 0.00 0.00 0.00 57 1017.0
20260507071847 62 0.0 0.0 0.00 0.00 0.00 58 1016.9
20260507071842 62 0.0 0.0 0.00 0.00 0.00 58 1016.9
20260507070817 62 0.0 0.0 0.00 0.00 0.00 58 1016.9
20260507065847 61 0.0 0.0 0.00 0.00 0.00 60 1016.9
20260507065752 61 0.0 0.0 0.00 0.00 0.00 60 1016.9
20260507064734 61 0.0 0.0 0.00 0.00 0.00 60 1016.8
20260507064727 61 0.0 0.0 0.00 0.00 0.00 60 1016.8
20260507063821 61 0.0 0.0 0.00 0.00 0.00 60 1016.8
20260507063701 61 0.0 0.0 0.00 0.00 0.00 60 1016.8
20260507062847 61 0.0 0.0 0.00 0.00 0.00 60 1016.6
20260507062636 61 0.0 0.0 0.00 0.00 0.00 60 1016.6
20260507061627 61 0.0 0.0 0.00 0.00 0.00 60 1016.5
20260507061611 61 0.0 0.0 0.00 0.00 0.00 60 1016.5
20260507060821 61 0.0 0.0 0.00 0.00 0.00 61 1016.4
20260507060546 61 0.0 0.0 0.00 0.00 0.00 61 1016.4
20260507055551 61 0.0 0.0 0.00 0.00 0.00 61 1016.2
20260507055521 61 0.0 0.0 0.00 0.00 0.00 61 1016.2
20260507054503 61 0.0 0.0 0.00 0.00 0.00 61 1016.2
20260507054456 61 0.0 0.0 0.00 0.00 0.00 61 1016.2
20260507053521 61 0.0 0.0 0.00 0.00 0.00 61 1016.1
20260507053431 61 0.0 0.0 0.00 0.00 0.00 61 1016.1
20260507052406 61 0.0 0.0 0.00 0.00 0.00 61 1016.0
20260507051347 61 0.0 0.0 0.00 0.00 0.00 62 1015.9
20260507051340 61 0.0 0.0 0.00 0.00 0.00 62 1015.9
20260507050347 61 0.0 0.0 0.00 0.00 0.00 62 1015.8
20260507050315 61 0.0 0.0 0.00 0.00 0.00 62 1015.8
20260507045250 61 0.0 0.0 0.00 0.00 0.00 62 1015.7
20260507044315 61 0.0 0.0 0.00 0.00 0.00 62 1015.5
20260507044225 61 0.0 0.0 0.00 0.00 0.00 62 1015.5
20260507043234 60 0.0 0.0 0.00 0.00 0.00 62 1015.4
20260507043200 60 0.0 0.0 0.00 0.00 0.00 62 1015.4
20260507042135 60 0.0 0.0 0.00 0.00 0.00 62 1015.3
20260507041307 60 0.0 0.0 0.00 0.00 0.00 63 1015.4
20260507041110 60 0.0 0.0 0.00 0.00 0.00 63 1015.4
20260507040127 60 0.0 0.0 0.00 0.00 0.00 63 1015.3
20260507040044 60 0.0 0.0 0.00 0.00 0.00 63 1015.3
20260507035019 60 0.0 0.0 0.00 0.00 0.00 63 1015.4
20260507034347 60 0.0 0.0 0.00 0.00 0.00 64 1015.3
20260507033954 60 0.0 0.0 0.00 0.00 0.00 64 1015.3
20260507032929 59 0.0 0.0 0.00 0.00 0.00 65 1015.2
20260507031904 55 0.0 0.0 0.00 0.00 0.00 70 1015.2
20260507031023 54 0.0 0.0 0.00 0.00 0.00 71 1015.0
20260507030839 54 0.0 0.0 0.00 0.00 0.00 71 1015.0
20260507025918 55 0.0 0.0 0.00 0.00 0.00 69 1014.9
20260507025814 55 0.0 0.0 0.00 0.00 0.00 69 1014.9
20260507024749 54 0.0 0.0 0.00 0.00 0.00 73 1014.9
20260507023723 55 0.0 0.0 0.00 0.00 0.00 72 1014.8
20260507022910 55 0.0 0.0 0.00 0.00 0.00 73 1014.9
20260507022658 55 0.0 0.0 0.00 0.00 0.00 73 1014.9
20260507021633 54 0.0 0.0 0.00 0.00 0.00 72 1014.9
20260507020716 54 0.0 0.0 0.00 0.00 0.00 73 1014.9
20260507020608 54 0.0 0.0 0.00 0.00 0.00 73 1014.9
20260507015946 54 0.0 0.0 0.00 0.00 0.00 74 1014.7
20260507015543 54 0.0 0.0 0.00 0.00 0.00 74 1014.7
20260507014518 54 0.0 0.0 0.00 0.00 0.00 72 1014.5
20260507013523 55 0.0 0.0 0.00 0.00 0.00 69 1014.5
20260507013453 55 0.0 0.0 0.00 0.00 0.00 69 1014.5
20260507012523 55 0.0 0.0 0.00 0.00 0.00 73 1014.5
20260507012427 55 0.0 0.0 0.00 0.00 0.00 73 1014.5
20260507011402 56 0.0 0.0 0.00 0.00 0.00 69 1014.5
20260507010338 55 0.0 0.0 0.00 0.00 0.00 72 1014.4
20260507005319 55 0.0 0.0 0.00 0.00 0.00 72 1014.3
20260507005312 55 0.0 0.0 0.00 0.00 0.00 72 1014.3
20260507004441 55 0.0 0.0 0.00 0.00 0.00 70 1014.2
20260507004247 55 0.0 0.0 0.00 0.00 0.00 70 1014.2
20260507003222 55 0.0 0.0 0.00 0.00 0.00 73 1014.3
20260507002318 55 0.0 0.0 0.00 0.00 0.00 75 1014.3
20260507002157 55 0.0 0.0 0.00 0.00 0.00 75 1014.3
20260507001131 55 0.0 0.0 0.00 0.00 0.00 71 1014.2
20260507000126 55 0.0 0.0 0.00 0.00 0.00 72 1014.0
20260507000106 55 0.0 0.0 0.00 0.00 0.00 72 1014.0
20260506235140 55 0.0 0.0 0.00 0.00 0.00 70 1014.0
20260506235041 55 0.0 0.0 0.00 0.00 0.00 70 1014.0
20260506234023 55 0.0 0.0 0.00 0.00 0.00 70 1014.1
20260506234016 55 0.0 0.0 0.00 0.00 0.00 70 1014.1
20260506233023 56 0.0 0.0 0.00 0.00 0.00 69 1014.2
20260506232951 56 0.0 0.0 0.00 0.00 0.00 69 1014.2
20260506231926 55 0.0 0.0 0.00 0.00 0.00 70 1014.1
20260506231023 55 0.0 0.0 0.00 0.00 0.00 71 1014.1
20260506230901 55 0.0 0.0 0.00 0.00 0.00 71 1014.1
20260506225932 56 0.0 0.0 0.00 0.00 0.00 69 1014.0
20260506225836 56 0.0 0.0 0.00 0.00 0.00 69 1014.0
20260506224810 57 0.0 0.0 0.00 0.00 0.00 69 1013.9
20260506223816 56 0.0 0.0 0.00 0.00 0.00 67 1013.8
20260506223745 56 0.0 0.0 0.00 0.00 0.00 67 1013.8
20260506222930 57 0.0 0.0 0.00 0.00 0.00 66 1013.7
20260506222720 57 0.0 0.0 0.00 0.00 0.00 66 1013.7
20260506221734 56 0.0 0.0 0.00 0.00 0.00 66 1013.6
20260506221655 56 0.0 0.0 0.00 0.00 0.00 66 1013.6
20260506220630 60 0.0 0.0 0.00 0.00 0.00 64 1013.5
20260506215928 63 0.0 0.0 0.00 0.00 0.00 57 1013.6
20260506215605 63 0.0 0.0 0.00 0.00 0.00 57 1013.6
20260506214626 63 0.0 0.0 0.00 0.00 0.00 57 1013.5
20260506214540 63 0.0 0.0 0.00 0.00 0.00 57 1013.5
20260506213523 63 0.0 0.0 0.00 0.00 0.00 57 1013.3
20260506213514 63 0.0 0.0 0.00 0.00 0.00 57 1013.3
20260506212449 63 0.0 0.0 0.00 0.00 0.00 57 1013.2
20260506211523 63 0.0 0.0 0.00 0.00 0.00 57 1013.4
20260506211424 63 0.0 0.0 0.00 0.00 0.00 57 1013.4
20260506210407 63 0.0 0.0 0.00 0.00 0.00 57 1013.2
20260506210359 63 0.0 0.0 0.00 0.00 0.00 57 1013.2
20260506205334 63 0.0 0.0 0.00 0.00 0.00 57 1013.2
20260506204423 64 0.0 0.0 0.00 0.00 0.00 57 1013.1
20260506204309 64 0.0 0.0 0.00 0.00 0.00 57 1013.1
20260506203404 64 0.0 0.0 0.00 0.00 0.00 57 1013.1
20260506203244 64 0.0 0.0 0.00 0.00 0.00 57 1013.1
20260506202219 64 0.0 0.0 0.00 0.00 0.00 57 1013.0
20260506201153 64 0.0 0.0 0.00 0.00 0.00 57 1012.9
20260506195103 64 0.0 0.0 0.00 0.00 0.00 57 1012.8
20260506194038 64 0.0 0.0 0.00 0.00 0.00 57 1012.9
20260506192023 64 0.0 0.0 0.00 0.00 0.00 57 1012.7
20260506191948 64 0.0 0.0 0.00 0.00 0.00 57 1012.7
20260506190931 64 0.0 0.0 0.00 0.00 0.00 57 1012.7
20260506190923 64 0.0 0.0 0.00 0.00 0.00 57 1012.7
20260506185857 64 0.0 0.0 0.00 0.00 0.00 57 1012.6
20260506184849 64 0.0 0.0 0.00 0.00 0.00 56 1012.4
20260506184832 64 0.0 0.0 0.00 0.00 0.00 56 1012.4
20260506183815 64 0.0 0.0 0.00 0.00 0.00 57 1012.2
20260506183807 64 0.0 0.0 0.00 0.00 0.00 57 1012.2
20260506182805 65 0.0 0.0 0.00 0.00 0.00 57 1012.2
20260506182742 65 0.0 0.0 0.00 0.00 0.00 57 1012.2
20260506181717 65 0.0 0.0 0.00 0.00 0.00 57 1012.1
20260506180815 65 0.0 0.0 0.00 0.00 0.00 57 1012.0
20260506180652 65 0.0 0.0 0.00 0.00 0.00 57 1012.0
20260506175627 65 0.0 0.0 0.00 0.00 0.00 57 1012.0
20260506174602 65 0.0 0.0 0.00 0.00 0.00 57 1011.9
20260506173814 65 0.0 0.0 0.00 0.00 0.00 57 1011.8
20260506173536 65 0.0 0.0 0.00 0.00 0.00 57 1011.8
20260506172523 65 0.0 0.0 0.00 0.00 0.00 56 1011.7
20260506172511 65 0.0 0.0 0.00 0.00 0.00 56 1011.7
20260506171509 65 0.0 0.0 0.00 0.00 0.00 56 1011.6
20260506171446 65 0.0 0.0 0.00 0.00 0.00 56 1011.6
20260506170523 65 0.0 0.0 0.00 0.00 0.00 56 1011.4
20260506170421 65 0.0 0.0 0.00 0.00 0.00 56 1011.4
20260506165523 65 0.0 0.0 0.00 0.00 0.00 56 1011.4
20260506165356 65 0.0 0.0 0.00 0.00 0.00 56 1011.4
20260506163326 66 0.0 0.0 0.00 0.00 0.00 55 1011.2
20260506163306 66 0.0 0.0 0.00 0.00 0.00 55 1011.2
20260506162314 66 0.0 0.0 0.00 0.00 0.00 55 1011.2
20260506162240 66 0.0 0.0 0.00 0.00 0.00 55 1011.2
20260506161215 66 0.0 0.0 0.00 0.00 0.00 55 1011.0
20260506160150 66 0.0 0.0 0.00 0.00 0.00 55 1010.9
20260506155125 66 0.0 0.0 0.00 0.00 0.00 54 1010.8
20260506154141 66 0.0 0.0 0.00 0.00 0.00 55 1010.9
20260506154100 66 0.0 0.0 0.00 0.00 0.00 55 1010.9
20260506153126 66 0.0 0.0 0.00 0.00 0.00 54 1011.0
20260506153035 66 0.0 0.0 0.00 0.00 0.00 54 1011.0
20260506152457 66 0.0 0.0 0.00 0.00 0.00 54 1011.0
20260506152010 66 0.0 0.0 0.00 0.00 0.00 54 1011.0
20260506150957 66 0.0 0.0 0.00 0.00 0.00 55 1011.1
20260506150944 66 0.0 0.0 0.00 0.00 0.00 55 1011.1
20260506145957 66 0.0 0.0 0.00 0.00 0.00 55 1011.1
20260506145919 66 0.0 0.0 0.00 0.00 0.00 55 1011.1
20260506144957 66 0.0 0.0 0.00 0.00 0.00 55 1010.9
20260506144854 66 0.0 0.0 0.00 0.00 0.00 55 1010.9
20260506143957 66 0.0 0.0 0.00 0.00 0.00 55 1011.0
20260506143829 66 0.0 0.0 0.00 0.00 0.00 55 1011.0
20260506142855 66 0.0 0.0 0.00 0.00 0.00 55 1010.9
20260506142804 66 0.0 0.0 0.00 0.00 0.00 55 1010.9